Time;durP1;ratioP1;P1;durP2;ratioP2;P2;SDS_P1;SDS_P2;PMS_P1;PMS_P2;Temp;Humidity;BMP_temperature;BMP_pressure;BME280_temperature;BME280_humidity;BME280_pressure;Samples;Min_cycle;Max_cycle;Signal;HPM_P1;HPM_P2
2022/03/05 00:00:50;;;;;;;3.40;1.45;;;23.70;66.90;;;;;;5048345;28;20040;-74
2022/03/05 00:03:17;;;;;;;6.20;1.30;;;23.70;66.90;;;;;;5047705;28;20491;-74
2022/03/05 00:05:43;;;;;;;6.80;2.03;;;23.70;66.90;;;;;;5046941;28;20025;-74
2022/03/05 00:08:10;;;;;;;4.57;1.48;;;23.70;66.80;;;;;;5046249;28;20036;-74
2022/03/05 00:10:37;;;;;;;5.28;1.80;;;23.70;66.80;;;;;;5048611;28;20379;-74
2022/03/05 00:13:05;;;;;;;4.40;1.45;;;23.70;66.80;;;;;;5045873;28;20515;-74
2022/03/05 00:15:32;;;;;;;7.50;1.73;;;23.70;66.80;;;;;;5051871;28;20029;-75
2022/03/05 00:17:59;;;;;;;7.25;1.55;;;23.70;66.90;;;;;;5049485;28;20029;-74
2022/03/05 00:20:26;;;;;;;4.22;1.75;;;23.70;67.00;;;;;;5056126;28;20088;-74
2022/03/05 00:22:53;;;;;;;4.88;1.55;;;23.70;67.00;;;;;;5049264;28;20499;-73
2022/03/05 00:25:27;;;;;;;7.75;1.60;;;23.60;67.00;;;;;;5048165;28;20052;-73
2022/03/05 00:27:54;;;;;;;3.85;1.38;;;23.60;67.00;;;;;;5039864;28;20025;-73
2022/03/05 00:30:21;;;;;;;4.82;1.20;;;23.60;67.10;;;;;;5039396;28;20029;-73
2022/03/05 00:32:48;;;;;;;3.60;1.45;;;23.60;67.20;;;;;;5040150;28;20035;-74
2022/03/05 00:35:15;;;;;;;2.67;1.25;;;23.60;67.30;;;;;;5049048;28;20075;-73
2022/03/05 00:37:42;;;;;;;11.98;1.80;;;23.60;67.40;;;;;;5043663;28;20091;-73
2022/03/05 00:40:09;;;;;;;1.98;1.10;;;23.50;67.30;;;;;;5043411;28;20045;-73
2022/03/05 00:42:36;;;;;;;4.28;1.10;;;23.50;67.40;;;;;;5046306;28;20017;-72
2022/03/05 00:45:05;;;;;;;5.22;1.83;;;23.50;67.50;;;;;;5046964;28;20112;-74
2022/03/05 00:47:33;;;;;;;5.40;1.67;;;23.50;67.60;;;;;;5047769;28;20116;-73
2022/03/05 00:49:59;;;;;;;5.80;1.77;;;23.50;67.60;;;;;;5045041;28;20579;-74
2022/03/05 00:52:26;;;;;;;4.80;2.00;;;23.40;67.60;;;;;;5047585;28;20071;-73
2022/03/05 00:54:52;;;;;;;5.10;1.23;;;23.40;67.70;;;;;;5046258;28;20395;-73
2022/03/05 00:57:19;;;;;;;3.60;1.70;;;23.40;67.70;;;;;;5046447;28;20025;-71
2022/03/05 00:59:45;;;;;;;5.25;1.52;;;23.40;67.70;;;;;;5045884;28;20021;-75
2022/03/05 01:02:12;;;;;;;5.03;1.25;;;23.40;67.70;;;;;;5048324;28;20070;-72
2022/03/05 01:04:39;;;;;;;4.95;1.40;;;23.40;67.70;;;;;;5046128;28;20108;-73
2022/03/05 01:07:05;;;;;;;7.68;1.65;;;23.40;67.60;;;;;;5047116;28;20087;-73
2022/03/05 01:09:32;;;;;;;4.13;1.30;;;23.40;67.60;;;;;;5046176;28;20029;-72
2022/03/05 01:11:59;;;;;;;4.80;1.38;;;23.30;67.50;;;;;;5047082;28;20025;-73
2022/03/05 01:14:25;;;;;;;4.90;1.58;;;23.30;67.50;;;;;;5043561;28;20522;-73
2022/03/05 01:16:52;;;;;;;5.47;1.70;;;23.30;67.50;;;;;;5045766;28;20024;-73
2022/03/05 01:19:18;;;;;;;4.80;1.80;;;23.30;67.50;;;;;;5046522;28;20606;-72
2022/03/05 01:21:48;;;;;;;8.85;2.25;;;23.30;67.50;;;;;;5045423;28;20405;-76
2022/03/05 01:24:15;;;;;;;5.88;2.30;;;23.20;67.40;;;;;;5046054;28;20025;-74
2022/03/05 01:26:41;;;;;;;14.55;1.85;;;23.20;67.50;;;;;;5045072;28;20025;-75
2022/03/05 01:29:08;;;;;;;8.93;1.90;;;23.20;67.50;;;;;;5048466;28;20044;-73
2022/03/05 01:31:34;;;;;;;12.57;2.22;;;23.20;67.70;;;;;;5028264;28;20028;-73
2022/03/05 01:34:01;;;;;;;8.05;1.77;;;23.20;67.80;;;;;;5046526;28;20040;-73
2022/03/05 01:36:27;;;;;;;7.43;2.67;;;23.20;67.80;;;;;;5028450;28;20049;-74
2022/03/05 01:38:56;;;;;;;7.15;2.28;;;23.10;67.80;;;;;;5046543;28;20107;-76
2022/03/05 01:41:23;;;;;;;11.10;2.28;;;23.20;67.90;;;;;;5043595;28;20009;-73
2022/03/05 01:43:51;;;;;;;9.60;1.58;;;23.10;67.90;;;;;;5043701;28;20379;-73
2022/03/05 01:46:35;;;;;;;7.78;1.65;;;23.10;67.90;;;;;;5028656;28;20504;-73
2022/03/05 01:49:07;;;;;;;7.32;1.17;;;23.10;68.00;;;;;;5046270;28;20068;-74
2022/03/05 01:51:34;;;;;;;7.03;2.28;;;23.10;68.20;;;;;;5043714;28;20419;-73
2022/03/05 01:54:01;;;;;;;7.80;1.90;;;23.10;68.10;;;;;;5045402;28;20428;-74
2022/03/05 01:56:28;;;;;;;1.67;0.90;;;23.10;68.10;;;;;;5043361;28;20476;-73
2022/03/05 01:58:55;;;;;;;4.80;0.95;;;23.10;68.10;;;;;;5051727;28;20021;-73
2022/03/05 02:01:23;;;;;;;9.00;2.38;;;23.10;68.00;;;;;;5049943;28;20066;-74
2022/03/05 02:03:51;;;;;;;4.28;1.77;;;23.10;67.90;;;;;;5049731;28;20464;-73
2022/03/05 02:06:18;;;;;;;9.02;1.88;;;23.10;67.80;;;;;;5049564;28;20033;-73
2022/03/05 02:08:45;;;;;;;8.32;1.80;;;23.10;67.90;;;;;;5051787;28;20025;-73
2022/03/05 02:11:12;;;;;;;4.38;1.35;;;23.10;67.80;;;;;;5047164;28;20119;-73
2022/03/05 02:13:38;;;;;;;8.10;1.55;;;23.00;67.70;;;;;;5045283;28;20068;-73
2022/03/05 02:16:05;;;;;;;6.97;3.00;;;23.00;67.80;;;;;;5049978;28;20022;-73
2022/03/05 02:18:32;;;;;;;8.85;2.42;;;23.00;67.80;;;;;;5046067;28;20032;-73
2022/03/05 02:20:58;;;;;;;10.35;2.15;;;23.00;67.90;;;;;;5051038;28;20107;-72
2022/03/05 02:23:25;;;;;;;5.68;1.95;;;22.90;67.90;;;;;;5050928;28;20025;-72
2022/03/05 02:26:05;;;;;;;8.30;1.92;;;23.00;68.10;;;;;;5048243;28;20036;-73
2022/03/05 02:28:34;;;;;;;12.18;2.15;;;22.90;68.20;;;;;;5049855;28;20056;-73
2022/03/05 02:31:00;;;;;;;8.93;2.00;;;22.90;68.40;;;;;;5045465;28;20545;-73
2022/03/05 02:33:27;;;;;;;7.10;2.15;;;22.90;68.30;;;;;;5046945;28;20029;-73
2022/03/05 02:35:54;;;;;;;4.75;1.15;;;22.90;68.30;;;;;;5037226;28;20017;-73
2022/03/05 02:38:22;;;;;;;5.43;1.27;;;22.90;68.30;;;;;;5050118;28;20079;-74
2022/03/05 02:40:50;;;;;;;6.50;2.33;;;22.90;68.30;;;;;;5050579;28;20051;-74
2022/03/05 02:43:18;;;;;;;5.13;1.65;;;22.90;68.30;;;;;;5049149;28;20547;-72
2022/03/05 02:45:45;;;;;;;4.05;1.50;;;22.90;68.30;;;;;;5051298;28;20036;-75
2022/03/05 02:48:15;;;;;;;5.95;1.55;;;22.80;68.20;;;;;;5048104;28;20022;-76
2022/03/05 02:50:43;;;;;;;4.60;1.23;;;22.90;68.30;;;;;;5041432;28;20025;-76
2022/03/05 02:53:10;;;;;;;9.13;2.22;;;22.90;68.30;;;;;;5050727;28;20364;-76
2022/03/05 02:55:39;;;;;;;7.82;1.90;;;22.90;68.30;;;;;;5032175;28;20032;-76
2022/03/05 02:58:05;;;;;;;8.73;2.05;;;22.80;68.30;;;;;;5045473;28;20041;-74
2022/03/05 03:00:32;;;;;;;5.63;1.58;;;22.80;68.50;;;;;;5047943;28;20029;-75
2022/03/05 03:02:59;;;;;;;7.55;1.65;;;22.80;68.70;;;;;;5050289;28;20063;-75
2022/03/05 03:05:26;;;;;;;7.53;1.48;;;22.80;68.90;;;;;;5031860;28;20809;-73
2022/03/05 03:07:53;;;;;;;13.23;1.80;;;22.80;69.00;;;;;;5049260;28;20504;-73
2022/03/05 03:10:19;;;;;;;5.30;1.27;;;22.80;69.00;;;;;;5049887;28;20060;-73
2022/03/05 03:12:46;;;;;;;4.72;1.30;;;22.80;69.00;;;;;;5044845;28;20052;-73
2022/03/05 03:15:14;;;;;;;3.85;1.38;;;22.80;69.10;;;;;;5047440;28;20032;-73
2022/03/05 03:17:46;;;;;;;6.28;1.60;;;22.80;69.10;;;;;;5029562;28;20059;-73
2022/03/05 03:20:18;;;;;;;3.63;1.20;;;22.80;69.10;;;;;;5045438;28;20029;-74
2022/03/05 03:22:45;;;;;;;3.72;1.30;;;22.70;69.00;;;;;;5047181;28;20040;-74
2022/03/05 03:25:12;;;;;;;7.25;1.88;;;22.80;69.00;;;;;;5051214;28;20029;-72
2022/03/05 03:27:39;;;;;;;3.05;1.58;;;22.70;68.90;;;;;;5048695;28;20100;-74
2022/03/05 03:30:08;;;;;;;5.07;1.48;;;22.80;69.00;;;;;;5045580;28;20061;-73
2022/03/05 03:32:35;;;;;;;6.43;1.38;;;22.70;69.00;;;;;;5046631;28;20075;-73
2022/03/05 03:35:03;;;;;;;5.40;2.78;;;22.70;69.10;;;;;;5050016;28;20483;-74
2022/03/05 03:37:31;;;;;;;12.27;2.08;;;22.70;69.00;;;;;;5048740;28;20044;-73
2022/03/05 03:39:59;;;;;;;5.40;1.45;;;22.70;69.00;;;;;;5044477;28;20056;-74
2022/03/05 03:42:26;;;;;;;5.40;1.42;;;22.70;69.10;;;;;;5047673;28;20383;-74
2022/03/05 03:44:53;;;;;;;4.32;2.22;;;22.70;69.00;;;;;;5048246;28;20021;-75
2022/03/05 03:47:20;;;;;;;5.05;1.75;;;22.70;69.10;;;;;;5049739;28;20091;-73
2022/03/05 03:49:47;;;;;;;6.28;1.42;;;22.60;69.20;;;;;;5042746;28;20515;-73
2022/03/05 03:52:14;;;;;;;6.88;2.22;;;22.60;69.30;;;;;;5045395;28;20028;-73
2022/03/05 03:54:42;;;;;;;7.93;1.33;;;22.60;69.30;;;;;;5045480;28;20032;-73
2022/03/05 03:57:09;;;;;;;10.43;1.90;;;22.60;69.40;;;;;;5046999;28;20013;-73
2022/03/05 03:59:36;;;;;;;19.70;2.65;;;22.60;69.50;;;;;;5045448;28;20037;-72
2022/03/05 04:02:03;;;;;;;12.13;2.45;;;22.60;69.50;;;;;;5046758;28;20373;-73
2022/03/05 04:04:30;;;;;;;10.13;1.92;;;22.60;69.60;;;;;;5046240;28;20029;-73
2022/03/05 04:09:44;;;;;;;18.17;2.60;;;22.60;69.70;;;;;;5045673;28;20435;-73
2022/03/05 04:12:11;;;;;;;19.73;2.60;;;22.50;69.70;;;;;;5048735;28;20056;-73
2022/03/05 04:14:40;;;;;;;10.15;2.17;;;22.60;69.60;;;;;;5047935;28;20391;-74
2022/03/05 04:17:07;;;;;;;5.10;1.40;;;22.60;69.30;;;;;;5047855;28;20024;-73
2022/03/05 04:19:34;;;;;;;10.02;2.20;;;22.50;68.90;;;;;;5047781;28;20025;-74
2022/03/05 04:22:01;;;;;;;10.73;2.13;;;22.40;69.60;;;;;;5047539;28;20079;-73
2022/03/05 04:24:27;;;;;;;3.83;1.50;;;22.40;69.30;;;;;;5049344;28;20427;-73
2022/03/05 04:26:54;;;;;;;5.38;1.85;;;22.30;69.40;;;;;;5046188;28;20066;-73
2022/03/05 04:29:20;;;;;;;4.90;1.25;;;22.20;69.30;;;;;;5049160;28;20025;-73
2022/03/05 04:31:47;;;;;;;5.50;1.35;;;22.20;70.20;;;;;;5042580;28;20033;-72
2022/03/05 04:34:35;;;;;;;3.47;1.05;;;22.20;69.70;;;;;;5048986;28;20037;-73
2022/03/05 04:37:34;;;;;;;5.28;1.52;;;22.10;69.70;;;;;;5023448;28;20049;-74
2022/03/05 04:40:01;;;;;;;3.80;1.13;;;22.10;70.10;;;;;;4999297;28;20400;-73
2022/03/05 04:42:27;;;;;;;7.43;1.88;;;22.00;70.10;;;;;;5028930;28;20021;-74
2022/03/05 04:44:54;;;;;;;16.33;2.38;;;22.00;70.40;;;;;;5029597;28;20444;-73
2022/03/05 04:47:21;;;;;;;9.10;1.85;;;22.00;70.60;;;;;;5023589;28;20025;-73
2022/03/05 04:49:48;;;;;;;15.95;1.90;;;22.00;70.50;;;;;;5026259;28;20017;-74
2022/03/05 04:52:15;;;;;;;3.92;1.40;;;21.90;70.80;;;;;;5042280;28;20061;-74
2022/03/05 04:54:41;;;;;;;6.82;1.48;;;21.90;71.00;;;;;;5027455;28;20025;-73
2022/03/05 04:57:08;;;;;;;7.55;1.85;;;21.90;71.10;;;;;;5031132;28;20104;-73
2022/03/05 04:59:34;;;;;;;3.30;1.48;;;21.80;71.20;;;;;;5028119;28;20079;-73
2022/03/05 05:02:01;;;;;;;6.38;1.50;;;21.80;71.50;;;;;;5028787;28;20548;-74
2022/03/05 05:04:27;;;;;;;8.52;1.60;;;21.70;71.80;;;;;;5026199;28;20036;-74
2022/03/05 05:06:54;;;;;;;12.25;2.40;;;21.60;71.70;;;;;;5022632;28;20021;-73
2022/03/05 05:09:20;;;;;;;9.52;1.90;;;21.60;71.80;;;;;;5028050;28;20029;-73
2022/03/05 05:11:47;;;;;;;5.30;1.45;;;21.60;71.80;;;;;;5028366;28;20147;-73
2022/03/05 05:14:13;;;;;;;9.65;2.30;;;21.60;71.80;;;;;;5027704;28;20029;-73
2022/03/05 05:17:22;;;;;;;;;;;;;;;;;;;;;
2022/03/05 05:19:48;;;;;;;4.40;2.03;;;21.60;71.80;;;;;;5026848;28;20029;-73
2022/03/05 05:22:15;;;;;;;5.47;1.75;;;21.60;71.90;;;;;;5026772;28;20021;-73
2022/03/05 05:24:41;;;;;;;7.38;1.85;;;21.60;71.80;;;;;;5028899;28;20029;-73
2022/03/05 05:27:08;;;;;;;16.80;2.10;;;21.60;71.70;;;;;;5027803;28;20053;-72
2022/03/05 05:29:34;;;;;;;8.02;2.13;;;21.70;71.60;;;;;;5024565;28;20029;-73
2022/03/05 05:32:01;;;;;;;9.05;1.92;;;21.70;71.70;;;;;;5027393;28;20025;-73
2022/03/05 05:34:27;;;;;;;9.63;1.65;;;21.60;71.70;;;;;;5032116;28;20104;-73
2022/03/05 05:36:54;;;;;;;6.43;1.85;;;21.60;71.80;;;;;;5037339;28;20119;-73
2022/03/05 05:39:20;;;;;;;11.85;2.67;;;21.60;72.00;;;;;;5049872;28;20025;-73
2022/03/05 05:41:47;;;;;;;8.27;2.25;;;21.60;72.10;;;;;;5053119;28;20053;-72
2022/03/05 05:44:14;;;;;;;7.05;2.40;;;21.60;72.10;;;;;;5049328;28;20022;-72
2022/03/05 05:46:40;;;;;;;9.23;2.42;;;21.60;72.00;;;;;;5052228;28;20029;-73
2022/03/05 05:49:07;;;;;;;5.55;1.80;;;21.60;72.00;;;;;;5050625;28;20029;-72
2022/03/05 05:51:35;;;;;;;7.80;2.13;;;21.60;72.00;;;;;;5051757;28;20029;-73
2022/03/05 05:54:02;;;;;;;5.00;2.22;;;21.60;71.90;;;;;;5049141;28;20044;-72
2022/03/05 05:56:28;;;;;;;2.70;1.73;;;21.70;71.90;;;;;;5050690;28;20029;-72
2022/03/05 05:58:55;;;;;;;3.33;1.33;;;21.70;71.60;;;;;;5049748;28;20493;-73
2022/03/05 06:01:22;;;;;;;10.88;2.65;;;21.80;71.40;;;;;;5052618;28;20121;-72
2022/03/05 06:03:49;;;;;;;5.03;2.03;;;21.90;71.20;;;;;;5033252;28;20032;-73
2022/03/05 06:06:17;;;;;;;7.45;2.25;;;21.90;70.40;;;;;;5050383;28;20397;-73
2022/03/05 06:08:43;;;;;;;6.57;1.80;;;22.00;70.30;;;;;;5050356;28;20024;-73
2022/03/05 06:11:16;;;;;;;5.50;2.60;;;22.00;70.20;;;;;;5043475;28;20056;-73
2022/03/05 06:13:43;;;;;;;5.88;1.52;;;22.00;70.10;;;;;;5050537;28;20041;-74
2022/03/05 06:16:09;;;;;;;6.32;2.33;;;22.10;69.80;;;;;;5052557;28;20096;-73
2022/03/05 06:18:36;;;;;;;7.88;1.77;;;22.20;69.80;;;;;;5048905;28;20029;-74
2022/03/05 06:21:02;;;;;;;5.93;2.08;;;22.20;69.80;;;;;;5048523;28;20039;-74
2022/03/05 06:23:30;;;;;;;7.00;1.70;;;22.30;69.60;;;;;;5050786;28;20107;-74
2022/03/05 06:25:56;;;;;;;4.70;2.10;;;22.30;69.50;;;;;;5050289;28;20495;-73
2022/03/05 06:28:23;;;;;;;4.65;2.10;;;22.40;69.30;;;;;;5052655;28;20367;-73
2022/03/05 06:30:50;;;;;;;7.70;2.30;;;22.40;69.30;;;;;;5031307;28;20095;-73
2022/03/05 06:33:16;;;;;;;18.70;2.97;;;22.40;68.90;;;;;;5052376;28;20403;-74
2022/03/05 06:35:43;;;;;;;7.00;2.28;;;22.50;68.90;;;;;;5045114;28;20024;-73
2022/03/05 06:38:10;;;;;;;8.30;2.60;;;22.60;68.70;;;;;;5051734;28;20056;-74
2022/03/05 06:40:37;;;;;;;8.13;2.67;;;22.60;68.60;;;;;;5048614;28;20119;-74
2022/03/05 06:43:43;;;;;;;6.22;2.85;;;22.60;68.00;;;;;;5050160;28;20028;-73
2022/03/05 06:46:49;;;;;;;8.57;2.25;;;22.70;67.70;;;;;;5049004;28;20147;-74
2022/03/05 06:49:55;;;;;;;4.65;1.90;;;22.70;67.00;;;;;;5046071;28;20544;-75
2022/03/05 06:53:03;;;;;;;4.22;1.52;;;22.80;66.90;;;;;;5044595;28;20033;-75
2022/03/05 06:56:09;;;;;;;11.73;2.45;;;22.80;67.00;;;;;;5050591;28;20044;-74
2022/03/05 06:59:15;;;;;;;13.25;3.35;;;22.90;66.30;;;;;;5048642;28;20515;-75
2022/03/05 07:02:21;;;;;;;12.60;2.33;;;23.00;65.80;;;;;;5046417;28;20026;-75
2022/03/05 07:05:27;;;;;;;11.57;2.72;;;23.00;65.70;;;;;;5050048;28;20029;-75
2022/03/05 07:08:33;;;;;;;16.90;11.85;;;23.10;66.30;;;;;;5047165;28;20033;-74
2022/03/05 07:11:39;;;;;;;27.10;16.83;;;23.10;65.70;;;;;;5050128;28;20024;-72
2022/03/05 07:14:48;;;;;;;10.57;4.43;;;23.20;65.50;;;;;;5049169;28;20041;-70
2022/03/05 07:17:54;;;;;;;5.30;2.80;;;23.30;65.10;;;;;;5048548;28;20026;-72
2022/03/05 07:21:00;;;;;;;9.90;1.58;;;23.40;64.70;;;;;;5042427;28;20056;-72
2022/03/05 07:24:08;;;;;;;5.88;1.73;;;23.50;64.30;;;;;;5047105;28;20033;-72
2022/03/05 07:27:14;;;;;;;7.25;2.15;;;23.50;63.50;;;;;;5048026;28;20021;-71
2022/03/05 07:30:20;;;;;;;8.05;2.60;;;23.60;63.00;;;;;;5046307;28;20029;-71
2022/03/05 07:33:26;;;;;;;5.93;1.67;;;23.70;62.70;;;;;;5046196;28;20484;-71
2022/03/05 07:36:32;;;;;;;3.83;1.33;;;23.80;62.20;;;;;;5042178;28;20033;-72
2022/03/05 07:39:38;;;;;;;6.93;1.88;;;23.90;62.10;;;;;;5044300;28;20391;-72
2022/03/05 07:42:44;;;;;;;6.30;1.60;;;24.00;62.10;;;;;;5048534;28;20028;-72
2022/03/05 07:45:30;;;;;;;;;;;24.10;61.00;;;;;;5050866;28;20150;-72
2022/03/05 07:48:36;;;;;;;4.28;1.60;;;24.10;60.50;;;;;;5046451;28;20285;-70
2022/03/05 07:51:42;;;;;;;3.55;1.05;;;24.20;60.40;;;;;;5046115;28;20029;-72
2022/03/05 07:54:48;;;;;;;6.22;1.33;;;24.40;59.60;;;;;;5046591;28;20369;-70
2022/03/05 07:57:54;;;;;;;3.58;1.38;;;24.50;59.50;;;;;;5041961;28;20499;-72
2022/03/05 08:01:00;;;;;;;7.13;1.95;;;24.60;59.30;;;;;;5047468;28;20064;-73
2022/03/05 08:04:06;;;;;;;3.28;1.70;;;24.70;59.60;;;;;;5044282;28;20048;-71
2022/03/05 08:07:12;;;;;;;5.05;2.15;;;24.70;58.70;;;;;;5037618;28;20032;-71
2022/03/05 08:09:59;;;;;;;;;;;24.80;58.60;;;;;;5050125;28;20033;-71
2022/03/05 08:13:05;;;;;;;3.10;1.67;;;24.90;58.80;;;;;;5048265;28;20387;-71
2022/03/05 08:15:52;;;;;;;;;;;25.00;58.20;;;;;;5041463;28;20448;-71
2022/03/05 08:18:58;;;;;;;4.78;1.55;;;25.10;57.40;;;;;;5046937;28;20382;-70
2022/03/05 08:21:44;;;;;;;;;;;25.20;56.60;;;;;;5042473;28;20034;-70
2022/03/05 08:24:50;;;;;;;4.20;1.60;;;25.30;56.40;;;;;;5044308;28;19912;-73
2022/03/05 08:27:36;;;;;;;;;;;25.40;56.50;;;;;;5048750;28;20021;-71
2022/03/05 08:30:42;;;;;;;3.97;1.17;;;25.50;56.20;;;;;;5038546;28;19909;-73
2022/03/05 08:33:30;;;;;;;;;;;25.50;55.90;;;;;;5045491;28;20063;-71
2022/03/05 08:36:36;;;;;;;6.78;2.13;;;25.70;55.60;;;;;;5043421;28;19944;-72
2022/03/05 08:39:22;;;;;;;;;;;25.80;55.60;;;;;;5002537;28;20041;-72
2022/03/05 08:42:28;;;;;;;5.60;1.38;;;25.90;55.10;;;;;;5008007;28;19916;-72
2022/03/05 08:45:13;;;;;;;;;;;25.90;55.10;;;;;;5008399;28;20030;-72
2022/03/05 08:48:20;;;;;;;6.10;1.60;;;26.00;55.50;;;;;;5004338;28;19982;-72
2022/03/05 08:51:05;;;;;;;;;;;26.10;55.40;;;;;;5008264;28;20037;-72
2022/03/05 08:54:11;;;;;;;5.60;1.55;;;26.20;55.90;;;;;;5005096;28;19999;-72
2022/03/05 08:56:57;;;;;;;;;;;26.30;54.50;;;;;;5004512;28;20030;-72
2022/03/05 09:00:03;;;;;;;6.70;1.92;;;26.40;53.90;;;;;;5005912;28;19909;-72
2022/03/05 09:03:09;;;;;;;8.85;1.92;;;26.50;54.00;;;;;;5004634;28;20018;-72
2022/03/05 09:05:55;;;;;;;;;;;26.70;53.90;;;;;;5003500;28;20097;-72
2022/03/05 09:09:01;;;;;;;6.03;1.80;;;26.80;53.60;;;;;;5003827;28;19913;-72
2022/03/05 09:12:07;;;;;;;8.38;2.17;;;26.90;54.10;;;;;;5002493;28;20030;-72
2022/03/05 09:15:13;;;;;;;4.65;1.42;;;26.90;54.30;;;;;;5001988;28;20395;-72
2022/03/05 09:18:19;;;;;;;4.45;1.15;;;27.10;53.90;;;;;;5007369;28;20084;-72
2022/03/05 09:21:25;;;;;;;5.63;1.77;;;27.20;52.70;;;;;;5002353;28;20018;-72
2022/03/05 09:24:32;;;;;;;4.20;2.00;;;27.20;52.70;;;;;;5001001;28;20038;-72
2022/03/05 09:27:38;;;;;;;3.65;1.38;;;27.30;52.50;;;;;;5006728;28;20080;-71
2022/03/05 09:30:44;;;;;;;4.57;1.55;;;27.40;52.60;;;;;;5006478;28;20036;-71
2022/03/05 09:33:51;;;;;;;3.58;1.50;;;27.50;52.50;;;;;;5004913;28;20038;-71
2022/03/05 09:36:57;;;;;;;4.88;1.27;;;27.60;52.30;;;;;;5006517;28;20014;-71
2022/03/05 09:40:03;;;;;;;8.25;2.10;;;27.70;52.30;;;;;;5042912;28;20115;-72
2022/03/05 09:43:09;;;;;;;6.10;1.85;;;27.70;51.90;;;;;;5046846;28;20032;-72
2022/03/05 09:46:15;;;;;;;6.93;1.65;;;27.90;51.40;;;;;;5050622;28;20056;-74
2022/03/05 09:49:21;;;;;;;4.80;2.03;;;28.00;51.70;;;;;;5045650;28;20029;-73
2022/03/05 09:52:27;;;;;;;3.90;1.65;;;28.10;51.70;;;;;;5046531;28;20021;-73
2022/03/05 09:55:33;;;;;;;8.45;1.35;;;28.20;51.20;;;;;;5047629;28;20083;-73
2022/03/05 09:58:40;;;;;;;4.50;1.40;;;28.30;50.70;;;;;;5045941;28;20031;-73
2022/03/05 10:01:46;;;;;;;4.60;1.60;;;28.40;50.50;;;;;;5041980;28;20029;-73
2022/03/05 10:04:58;;;;;;;5.40;1.92;;;28.40;50.50;;;;;;5047380;28;20025;-72
2022/03/05 10:08:22;;;;;;;5.10;1.25;;;28.50;50.30;;;;;;5041293;28;20475;-73
2022/03/05 10:11:28;;;;;;;3.72;1.42;;;28.60;49.90;;;;;;4968278;28;20027;-72
2022/03/05 10:14:34;;;;;;;2.67;1.17;;;28.70;49.80;;;;;;4967996;28;20125;-72
2022/03/05 10:17:40;;;;;;;5.60;1.55;;;28.70;49.60;;;;;;5044555;28;20032;-72
2022/03/05 10:20:50;;;;;;;3.17;1.15;;;28.80;49.70;;;;;;5040306;28;20479;-73
2022/03/05 10:23:56;;;;;;;5.60;1.67;;;28.80;49.20;;;;;;5050162;28;20035;-71
2022/03/05 10:27:08;;;;;;;6.78;1.55;;;28.90;49.30;;;;;;5049864;28;20375;-73
2022/03/05 10:30:14;;;;;;;4.95;1.70;;;28.90;49.50;;;;;;5040693;28;20028;-72
2022/03/05 10:33:20;;;;;;;4.55;1.55;;;28.90;49.40;;;;;;5046276;28;20037;-72
2022/03/05 10:36:29;;;;;;;4.95;1.45;;;29.00;49.70;;;;;;5051308;28;20577;-72
2022/03/05 10:39:41;;;;;;;5.88;1.92;;;29.10;49.70;;;;;;5044971;28;20491;-72
2022/03/05 10:42:40;;;;;;;3.70;1.10;;;29.10;49.30;;;;;;5040887;28;20118;-72
2022/03/05 10:45:47;;;;;;;1.45;0.90;;;29.20;49.10;;;;;;5049679;28;20037;-73
2022/03/05 10:48:59;;;;;;;3.63;1.10;;;29.20;49.00;;;;;;5049413;28;20036;-72
2022/03/05 10:52:05;;;;;;;4.38;1.60;;;29.30;48.80;;;;;;5046402;28;20032;-72
2022/03/05 10:55:15;;;;;;;8.52;1.30;;;29.30;48.50;;;;;;5049674;28;20053;-72
2022/03/05 10:58:25;;;;;;;3.75;1.30;;;29.40;48.20;;;;;;5049622;28;20060;-72
2022/03/05 11:01:31;;;;;;;4.43;1.30;;;29.50;48.60;;;;;;5046401;28;20507;-72
2022/03/05 11:04:37;;;;;;;2.78;1.20;;;29.60;48.40;;;;;;5045222;28;20388;-73
2022/03/05 11:07:43;;;;;;;2.85;1.23;;;29.70;48.50;;;;;;5048259;28;20025;-72
2022/03/05 11:10:49;;;;;;;6.00;2.95;;;29.80;48.00;;;;;;5048222;28;20116;-72
2022/03/05 11:13:55;;;;;;;5.28;1.70;;;29.80;48.10;;;;;;5047968;28;20036;-72
2022/03/05 11:17:01;;;;;;;4.50;1.58;;;29.90;48.40;;;;;;5044865;28;20440;-72
2022/03/05 11:20:07;;;;;;;8.93;2.42;;;29.90;48.90;;;;;;5049516;28;20063;-72
2022/03/05 11:23:13;;;;;;;5.88;1.67;;;30.00;48.80;;;;;;5046189;28;20434;-72
2022/03/05 11:26:20;;;;;;;5.55;1.67;;;30.10;49.10;;;;;;5047025;28;20033;-73
2022/03/05 11:29:26;;;;;;;9.15;2.25;;;30.20;48.60;;;;;;5043920;28;20032;-73
2022/03/05 11:32:32;;;;;;;3.60;1.83;;;30.20;49.20;;;;;;5049455;28;20052;-73
2022/03/05 11:35:43;;;;;;;14.07;2.47;;;30.20;49.40;;;;;;5048585;28;20061;-73
2022/03/05 11:38:51;;;;;;;5.95;2.33;;;30.20;48.40;;;;;;5049379;28;20076;-72
2022/03/05 11:41:20;;;;;;;2.78;1.55;;;30.20;49.00;;;;;;5051484;28;20499;-72
2022/03/05 11:44:32;;;;;;;3.78;1.55;;;30.20;48.70;;;;;;5048768;28;20083;-72
2022/03/05 11:47:30;;;;;;;4.03;1.83;;;30.20;49.00;;;;;;5040477;28;20021;-72
2022/03/05 11:49:59;;;;;;;7.88;2.75;;;30.20;49.30;;;;;;5046971;28;20092;-72
2022/03/05 11:52:41;;;;;;;4.22;1.90;;;30.30;49.50;;;;;;5050486;28;20048;-72
2022/03/05 11:55:59;;;;;;;5.95;2.97;;;30.30;50.00;;;;;;5048851;28;20446;-72
2022/03/05 11:59:05;;;;;;;5.18;2.08;;;30.30;50.10;;;;;;5047514;28;20108;-72
2022/03/05 12:02:14;;;;;;;7.82;1.85;;;30.40;50.20;;;;;;5047082;28;20055;-72
2022/03/05 12:05:26;;;;;;;14.50;2.85;;;30.50;50.20;;;;;;5040955;28;20040;-72
2022/03/05 12:08:33;;;;;;;7.93;2.22;;;30.60;49.80;;;;;;5046895;28;20029;-72
2022/03/05 12:11:59;;;;;;;5.50;1.63;;;30.60;49.30;;;;;;5038971;28;20750;-72
2022/03/05 12:14:55;;;;;;;4.90;2.08;;;30.70;49.00;;;;;;5046331;28;20079;-72
2022/03/05 12:18:01;;;;;;;2.65;1.80;;;30.80;48.70;;;;;;5033187;28;20037;-73
2022/03/05 12:21:07;;;;;;;7.18;2.33;;;30.90;48.90;;;;;;5049513;28;20025;-73
2022/03/05 12:24:28;;;;;;;7.50;2.78;;;30.90;48.90;;;;;;5038238;28;20065;-73
2022/03/05 12:27:40;;;;;;;7.40;2.22;;;31.00;49.10;;;;;;5044180;28;20048;-73
2022/03/05 12:30:46;;;;;;;6.80;2.92;;;31.10;49.50;;;;;;5047482;28;20483;-72
2022/03/05 12:33:52;;;;;;;8.77;2.13;;;31.10;49.20;;;;;;5047230;28;20424;-73
2022/03/05 12:37:01;;;;;;;6.03;1.92;;;31.10;49.60;;;;;;5044766;28;20029;-73
2022/03/05 12:40:07;;;;;;;10.50;2.15;;;31.20;49.70;;;;;;5046577;28;20033;-72
2022/03/05 12:43:25;;;;;;;10.25;2.50;;;31.20;50.00;;;;;;5047517;28;20072;-72
2022/03/05 12:46:31;;;;;;;6.38;1.95;;;31.30;50.20;;;;;;5043867;28;20144;-73
2022/03/05 12:49:38;;;;;;;6.15;2.28;;;31.30;50.40;;;;;;5046860;28;20035;-73
2022/03/05 12:52:44;;;;;;;5.85;2.40;;;31.30;50.10;;;;;;5028189;28;20025;-71
2022/03/05 12:55:56;;;;;;;5.50;2.53;;;31.30;50.40;;;;;;5047011;28;20503;-72
2022/03/05 12:59:04;;;;;;;8.05;1.80;;;31.30;50.40;;;;;;5048839;28;20033;-72
2022/03/05 13:02:10;;;;;;;6.00;1.70;;;31.30;50.60;;;;;;5027515;28;20020;-73
2022/03/05 13:05:16;;;;;;;10.73;2.78;;;31.30;50.20;;;;;;5048009;28;20641;-72
2022/03/05 13:08:22;;;;;;;4.78;1.50;;;31.40;50.20;;;;;;5047226;28;20036;-72
2022/03/05 13:11:30;;;;;;;7.65;1.70;;;31.40;49.40;;;;;;5045110;28;20074;-71
2022/03/05 13:14:37;;;;;;;9.27;2.35;;;31.40;49.40;;;;;;5020931;28;20042;-72
2022/03/05 13:17:43;;;;;;;8.48;2.50;;;31.40;49.10;;;;;;5031567;28;20410;-72
2022/03/05 13:20:49;;;;;;;6.45;2.15;;;31.50;49.10;;;;;;5039441;28;20025;-71
2022/03/05 13:23:55;;;;;;;7.13;1.98;;;31.50;48.60;;;;;;5038516;28;20029;-72
2022/03/05 13:27:01;;;;;;;11.18;2.90;;;31.50;49.10;;;;;;5027335;28;20483;-71
2022/03/05 13:30:08;;;;;;;8.85;2.38;;;31.40;49.50;;;;;;5041373;28;20036;-71
2022/03/05 13:33:29;;;;;;;10.60;2.30;;;31.40;49.70;;;;;;5042980;28;20056;-71
2022/03/05 13:36:33;;;;;;;3.80;1.67;;;31.30;49.90;;;;;;5049590;28;20041;-73
2022/03/05 13:39:53;;;;;;;7.80;2.70;;;31.20;50.00;;;;;;5044596;28;20041;-71
2022/03/05 13:42:59;;;;;;;5.43;2.10;;;31.10;50.50;;;;;;5022962;28;20044;-71
2022/03/05 13:46:05;;;;;;;8.20;2.10;;;31.20;50.80;;;;;;5046624;28;20025;-71
2022/03/05 13:49:13;;;;;;;7.97;2.88;;;31.20;50.50;;;;;;5039586;28;20099;-71
2022/03/05 13:52:35;;;;;;;8.95;2.17;;;31.20;50.30;;;;;;5038019;28;20029;-73
2022/03/05 13:55:49;;;;;;;7.68;3.22;;;31.20;50.50;;;;;;5049119;28;20051;-72
2022/03/05 13:58:59;;;;;;;11.63;2.47;;;31.10;51.00;;;;;;5047366;28;20036;-72
2022/03/05 14:02:08;;;;;;;9.73;2.35;;;31.00;51.20;;;;;;5049816;28;20487;-71
2022/03/05 14:05:00;;;;;;;7.25;4.07;;;31.00;51.30;;;;;;5046864;28;20658;-72
2022/03/05 14:08:06;;;;;;;4.25;2.15;;;31.00;51.50;;;;;;5050838;28;20021;-72
2022/03/05 14:11:12;;;;;;;10.05;2.10;;;31.00;51.70;;;;;;5046624;28;20025;-71
2022/03/05 14:14:18;;;;;;;7.63;2.85;;;31.00;51.40;;;;;;5045786;28;20444;-71
2022/03/05 14:17:24;;;;;;;9.77;3.10;;;31.10;51.70;;;;;;5051087;28;20032;-72
2022/03/05 14:20:30;;;;;;;7.60;2.47;;;31.00;51.60;;;;;;5048317;28;20025;-73
2022/03/05 14:23:40;;;;;;;7.28;2.92;;;31.00;51.80;;;;;;5030754;28;20420;-73
2022/03/05 14:26:46;;;;;;;10.85;2.83;;;31.00;52.20;;;;;;5048987;28;20029;-73
2022/03/05 14:29:52;;;;;;;8.57;2.75;;;30.90;52.30;;;;;;5049582;28;20101;-73